createdAt,value
2018-08-19T00:00:41.833Z,18.36
2018-08-19T00:02:09.428Z,18.28
2018-08-19T00:03:38.029Z,18.25
2018-08-19T00:05:05.500Z,18.22
2018-08-19T00:06:32.865Z,18.14
2018-08-19T00:08:00.456Z,18.06
2018-08-19T00:09:26.684Z,17.98
2018-08-19T00:10:54.405Z,17.96
2018-08-19T00:12:22.856Z,17.98
2018-08-19T00:13:50.152Z,18.00
2018-08-19T00:15:16.402Z,18.01
2018-08-19T00:16:42.786Z,18.02
2018-08-19T00:18:09.242Z,18.04
2018-08-19T00:19:35.524Z,18.04
2018-08-19T00:21:03.027Z,17.98
2018-08-19T00:22:30.459Z,17.96
2018-08-19T00:23:57.019Z,17.95
2018-08-19T00:25:23.302Z,17.93
2018-08-19T00:26:50.793Z,17.93
2018-08-19T00:28:18.510Z,17.94
2018-08-19T00:29:45.992Z,17.95
2018-08-19T00:31:12.488Z,17.96
2018-08-19T00:34:08.272Z,18.00
2018-08-19T00:35:34.473Z,18.01
2018-08-19T00:37:01.722Z,18.01
2018-08-19T00:38:29.113Z,18.01
2018-08-19T00:39:55.604Z,18.01
2018-08-19T00:41:23.742Z,18.00
2018-08-19T00:42:49.945Z,17.96
2018-08-19T00:44:16.498Z,17.81
2018-08-19T00:45:42.575Z,17.68
2018-08-19T00:47:10.022Z,17.64
2018-08-19T00:48:37.555Z,17.66
2018-08-19T00:50:04.094Z,17.68
2018-08-19T00:51:32.593Z,17.69
2018-08-19T00:52:58.916Z,17.72
2018-08-19T00:54:26.293Z,17.75
2018-08-19T00:55:54.830Z,17.76
2018-08-19T00:57:20.887Z,17.78
2018-08-19T00:58:49.363Z,17.82
2018-08-19T01:00:15.718Z,17.82
2018-08-19T01:01:44.281Z,17.77
2018-08-19T01:03:10.619Z,17.74
2018-08-19T01:04:39.184Z,17.75
2018-08-19T01:06:05.539Z,17.75
2018-08-19T01:07:34.132Z,17.77
2018-08-19T01:09:01.677Z,17.79
2018-08-19T01:10:29.114Z,17.82
2018-08-19T01:11:55.571Z,17.84
2018-08-19T01:13:21.731Z,17.87
2018-08-19T01:14:49.114Z,17.88
2018-08-19T01:16:15.412Z,17.89
2018-08-19T01:17:44.050Z,17.89
2018-08-19T01:19:10.310Z,17.89
2018-08-19T01:20:37.781Z,17.90
2018-08-19T01:22:03.830Z,17.90
2018-08-19T01:23:31.169Z,17.91
2018-08-19T01:24:59.735Z,17.90
2018-08-19T01:26:26.126Z,17.90
2018-08-19T01:27:51.768Z,17.91
2018-08-19T01:29:17.879Z,17.92
2018-08-19T01:30:46.349Z,17.91
2018-08-19T01:32:12.625Z,17.89
2018-08-19T01:33:41.068Z,17.86
2018-08-19T01:35:07.453Z,17.83
2018-08-19T01:36:34.822Z,17.78
2018-08-19T01:38:00.003Z,17.76
2018-08-19T01:39:26.494Z,17.74
2018-08-19T01:40:55.050Z,17.74
2018-08-19T01:42:22.508Z,17.70
2018-08-19T01:43:48.888Z,17.67
2018-08-19T01:45:17.445Z,17.65
2018-08-19T01:46:43.922Z,17.63
2018-08-19T01:48:11.162Z,17.60
2018-08-19T01:49:38.564Z,17.58
2018-08-19T01:51:07.162Z,17.56
2018-08-19T01:52:33.496Z,17.55
2018-08-19T01:53:58.989Z,17.51
2018-08-19T01:55:26.367Z,17.47
2018-08-19T01:56:54.706Z,17.47
2018-08-19T01:58:23.567Z,17.46
2018-08-19T01:59:47.983Z,17.46
2018-08-19T02:01:16.627Z,17.46
2018-08-19T02:02:43.980Z,17.44
2018-08-19T02:04:10.532Z,17.44
2018-08-19T02:05:37.114Z,17.43
2018-08-19T02:07:05.838Z,17.43
2018-08-19T02:08:31.885Z,17.41
2018-08-19T02:10:00.297Z,17.40
2018-08-19T02:11:26.496Z,17.37
2018-08-19T02:12:59.241Z,17.34
2018-08-19T02:14:21.582Z,17.29
2018-08-19T02:15:47.926Z,17.21
2018-08-19T02:17:14.117Z,17.13
2018-08-19T02:18:43.607Z,17.07
2018-08-19T02:20:06.655Z,17.05
2018-08-19T02:21:35.061Z,17.07
2018-08-19T02:23:02.487Z,17.08
2018-08-19T02:24:28.766Z,17.10
2018-08-19T02:25:55.101Z,17.11
2018-08-19T02:27:23.069Z,17.14
2018-08-19T02:28:49.508Z,17.16
2018-08-19T02:30:17.067Z,17.15
2018-08-19T02:31:43.246Z,17.17
2018-08-19T02:33:10.822Z,17.07
2018-08-19T02:34:38.336Z,16.91
2018-08-19T02:36:06.609Z,16.77
2018-08-19T02:37:33.082Z,16.66
2018-08-19T02:39:00.592Z,16.59
2018-08-19T02:40:28.861Z,16.56
2018-08-19T02:41:55.430Z,16.58
2018-08-19T02:43:22.763Z,16.62
2018-08-19T02:44:51.117Z,16.68
2018-08-19T02:46:18.576Z,16.73
2018-08-19T02:47:46.048Z,16.78
2018-08-19T02:49:12.283Z,16.84
2018-08-19T02:50:39.926Z,16.89
2018-08-19T02:52:06.267Z,16.94
2018-08-19T02:53:34.846Z,16.99
2018-08-19T02:55:02.352Z,17.03
2018-08-19T02:56:29.493Z,17.07
2018-08-19T02:57:58.722Z,17.10
2018-08-19T03:00:48.491Z,17.18
2018-08-19T03:02:15.911Z,17.21
2018-08-19T03:03:44.449Z,17.21
2018-08-19T03:05:11.730Z,17.20
2018-08-19T03:06:36.894Z,17.15
2018-08-19T03:08:04.197Z,17.11
2018-08-19T03:09:32.898Z,17.11
2018-08-19T03:11:00.371Z,17.06
2018-08-19T03:12:25.954Z,17.03
2018-08-19T03:13:53.403Z,17.01
2018-08-19T03:15:21.806Z,16.96
2018-08-19T03:16:49.318Z,16.94
2018-08-19T03:18:16.758Z,16.96
2018-08-19T03:19:43.144Z,17.00
2018-08-19T03:21:09.563Z,17.06
2018-08-19T03:22:36.844Z,17.09
2018-08-19T03:24:02.217Z,17.14
2018-08-19T03:25:30.591Z,17.19
2018-08-19T03:26:55.845Z,17.22
2018-08-19T03:28:24.379Z,17.26
2018-08-19T03:29:51.635Z,17.27
2018-08-19T03:31:19.184Z,17.28
2018-08-19T03:32:46.658Z,17.26
2018-08-19T03:34:11.657Z,17.25
2018-08-19T03:35:40.198Z,17.25
2018-08-19T03:37:06.456Z,17.13
2018-08-19T03:38:32.668Z,17.00
2018-08-19T03:40:02.350Z,16.92
2018-08-19T03:41:26.438Z,16.82
2018-08-19T03:49:12.758Z,16.66
2018-08-19T03:54:41.962Z,16.98
2018-08-19T03:56:07.825Z,17.01
2018-08-19T03:57:35.107Z,17.06
2018-08-19T03:59:03.515Z,17.10
2018-08-19T04:00:29.812Z,17.14
2018-08-19T04:01:58.297Z,17.18
2018-08-19T04:03:25.152Z,17.19
2018-08-19T04:04:51.452Z,17.20
2018-08-19T04:06:17.839Z,17.21
2018-08-19T04:07:43.791Z,17.22
2018-08-19T04:09:10.196Z,17.23
2018-08-19T04:10:37.731Z,17.25
2018-08-19T04:12:06.299Z,17.25
2018-08-19T04:13:33.627Z,17.26
2018-08-19T04:15:01.056Z,17.26
2018-08-19T04:16:28.470Z,17.26
2018-08-19T04:17:54.927Z,17.26
2018-08-19T04:19:22.295Z,17.24
2018-08-19T04:20:50.757Z,17.21
2018-08-19T04:22:16.086Z,17.19
2018-08-19T04:23:43.612Z,17.19
2018-08-19T04:25:12.239Z,17.19
2018-08-19T04:26:40.879Z,17.19
2018-08-19T04:28:05.303Z,17.20
2018-08-19T04:29:31.350Z,17.20
2018-08-19T04:30:58.669Z,17.22
2018-08-19T04:32:28.128Z,17.23
2018-08-19T04:33:53.559Z,17.25
2018-08-19T04:35:21.023Z,17.27
2018-08-19T04:38:54.473Z,17.18
2018-08-19T04:50:30.657Z,17.62
2018-08-19T04:51:56.420Z,17.68
2018-08-19T04:53:24.747Z,17.74
2018-08-19T04:54:51.402Z,17.77
2018-08-19T04:56:16.522Z,17.80
2018-08-19T04:57:43.920Z,17.82
2018-08-19T04:59:10.403Z,17.82
2018-08-19T05:00:38.837Z,17.83
2018-08-19T05:02:07.084Z,17.84
2018-08-19T05:03:31.179Z,17.85
2018-08-19T05:05:56.792Z,17.87
2018-08-19T05:07:23.919Z,17.88
2018-08-19T05:10:27.991Z,17.91
2018-08-19T05:12:03.308Z,17.95
2018-08-19T05:13:30.507Z,17.97
2018-08-19T05:14:56.452Z,18.00
2018-08-19T05:16:24.864Z,18.02
2018-08-19T05:17:51.840Z,18.05
2018-08-19T05:19:18.194Z,18.08
2018-08-19T05:20:46.815Z,18.10
2018-08-19T05:22:13.294Z,18.12
2018-08-19T05:26:36.669Z,18.21
2018-08-19T05:28:02.984Z,18.24
2018-08-19T05:29:29.421Z,18.28
2018-08-19T05:30:55.785Z,18.33
2018-08-19T05:33:49.280Z,18.43
2018-08-19T05:35:15.717Z,18.48
2018-08-19T05:36:42.809Z,18.53
2018-08-19T05:38:11.235Z,18.58
2018-08-19T05:39:38.524Z,18.62
2018-08-19T05:41:04.948Z,18.71
2018-08-19T05:42:32.305Z,18.87
2018-08-19T05:43:58.639Z,19.05
2018-08-19T05:45:28.131Z,19.26
2018-08-19T05:46:53.055Z,19.49
2018-08-19T05:48:19.329Z,19.71
2018-08-19T05:49:48.184Z,19.93
2018-08-19T05:51:13.388Z,20.13
2018-08-19T05:52:41.993Z,20.31
2018-08-19T05:54:08.549Z,20.47
2018-08-19T05:55:36.999Z,20.62
2018-08-19T05:57:04.429Z,20.75
2018-08-19T05:58:31.846Z,20.89
2018-08-19T05:59:59.121Z,20.92
2018-08-19T06:01:25.727Z,20.90
2018-08-19T06:02:53.261Z,20.82
2018-08-19T06:04:20.542Z,20.71
2018-08-19T06:05:48.188Z,20.69
2018-08-19T06:07:15.551Z,20.65
2018-08-19T06:08:44.010Z,20.62
2018-08-19T06:10:10.022Z,20.64
2018-08-19T06:11:39.621Z,20.72
2018-08-19T06:13:03.910Z,20.91
2018-08-19T06:14:32.499Z,21.04
2018-08-19T06:15:59.114Z,21.08
2018-08-19T06:17:27.666Z,21.20
2018-08-19T06:18:53.898Z,21.31
2018-08-19T06:20:21.515Z,21.36
2018-08-19T06:21:48.090Z,21.52
2018-08-19T06:23:15.667Z,21.53
2018-08-19T06:24:43.499Z,21.47
2018-08-19T06:26:10.958Z,21.45
2018-08-19T06:27:38.318Z,21.55
2018-08-19T06:29:03.912Z,21.60
2018-08-19T06:30:31.309Z,21.69
2018-08-19T06:31:59.079Z,21.68
2018-08-19T06:33:27.584Z,21.79
2018-08-19T06:34:54.314Z,21.89
2018-08-19T06:36:20.406Z,21.98
2018-08-19T06:37:49.025Z,22.03
2018-08-19T06:39:15.561Z,21.92
2018-08-19T06:40:42.028Z,21.83
2018-08-19T06:42:09.626Z,21.80
2018-08-19T06:43:37.189Z,21.72
2018-08-19T06:45:07.617Z,21.74
2018-08-19T06:46:33.159Z,21.69
2018-08-19T06:47:59.677Z,21.62
2018-08-19T06:49:26.852Z,21.48
2018-08-19T06:50:55.455Z,21.43
2018-08-19T06:52:21.723Z,21.31
2018-08-19T06:53:49.468Z,21.22
2018-08-19T06:55:15.503Z,21.16
2018-08-19T06:56:41.862Z,21.16
2018-08-19T06:58:10.145Z,21.23
2018-08-19T06:59:36.050Z,21.29
2018-08-19T07:01:02.479Z,21.33
2018-08-19T07:02:30.120Z,21.34
2018-08-19T07:03:57.703Z,21.32
2018-08-19T07:05:24.212Z,21.35
2018-08-19T07:06:51.656Z,21.35
2018-08-19T07:08:19.141Z,21.32
2018-08-19T07:09:47.862Z,21.32
2018-08-19T07:11:14.292Z,21.31
2018-08-19T07:12:40.726Z,21.27
2018-08-19T07:14:08.020Z,21.28
2018-08-19T07:15:35.561Z,21.29
2018-08-19T07:17:02.913Z,21.24
2018-08-19T07:18:29.540Z,21.26
2018-08-19T07:19:58.111Z,21.30
2018-08-19T07:21:24.822Z,21.35
2018-08-19T07:22:50.787Z,21.42
2018-08-19T07:24:18.321Z,21.49
2018-08-19T07:25:45.209Z,21.52
2018-08-19T07:27:13.645Z,21.55
2018-08-19T07:28:41.259Z,21.60
2018-08-19T07:30:08.842Z,21.65
2018-08-19T07:31:34.612Z,21.71
2018-08-19T07:33:00.834Z,21.79
2018-08-19T07:34:29.209Z,21.83
2018-08-19T07:35:55.453Z,21.88
2018-08-19T07:37:22.889Z,21.92
2018-08-19T07:38:48.414Z,21.94
2018-08-19T07:40:15.684Z,22.00
2018-08-19T07:41:42.232Z,22.06
2018-08-19T07:43:09.066Z,22.11
2018-08-19T07:44:36.718Z,22.16
2018-08-19T07:46:03.675Z,22.22
2018-08-19T07:47:30.219Z,22.28
2018-08-19T07:48:57.743Z,22.33
2018-08-19T07:50:25.476Z,22.40
2018-08-19T07:51:52.406Z,22.46
2018-08-19T07:53:19.596Z,22.52
2018-08-19T07:54:47.151Z,22.56
2018-08-19T07:56:14.854Z,22.62
2018-08-19T07:57:42.551Z,22.65
2018-08-19T07:59:11.145Z,22.68
2018-08-19T08:00:37.666Z,22.72
2018-08-19T08:02:05.238Z,22.72
2018-08-19T08:03:32.671Z,22.77
2018-08-19T08:05:01.285Z,22.81
2018-08-19T08:06:28.834Z,22.82
2018-08-19T08:07:56.191Z,22.84
2018-08-19T08:09:22.712Z,22.85
2018-08-19T08:10:51.350Z,22.89
2018-08-19T08:12:20.886Z,22.94
2018-08-19T08:13:45.605Z,22.99
2018-08-19T08:15:11.404Z,23.07
2018-08-19T08:16:39.073Z,23.16
2018-08-19T08:18:06.640Z,23.26
2018-08-19T08:19:33.176Z,23.33
2018-08-19T08:21:00.830Z,23.38
2018-08-19T08:22:28.041Z,23.45
2018-08-19T08:23:56.587Z,23.48
2018-08-19T08:25:23.230Z,23.52
2018-08-19T08:26:50.121Z,23.54
2018-08-19T08:28:18.866Z,23.55
2018-08-19T08:29:44.950Z,23.55
2018-08-19T08:31:12.594Z,23.52
2018-08-19T08:32:39.079Z,23.47
2018-08-19T08:34:06.814Z,23.48
2018-08-19T08:35:34.416Z,23.49
2018-08-19T08:37:00.673Z,23.45
2018-08-19T08:38:28.260Z,23.47
2018-08-19T08:39:54.137Z,23.53
2018-08-19T08:41:21.643Z,23.59
2018-08-19T08:42:49.214Z,23.60
2018-08-19T08:44:16.769Z,23.56
2018-08-19T08:45:44.280Z,23.57
2018-08-19T08:47:13.010Z,23.58
2018-08-19T08:48:40.695Z,23.60
2018-08-19T08:50:07.244Z,23.55
2018-08-19T08:51:35.285Z,23.49
2018-08-19T08:53:00.988Z,23.42
2018-08-19T08:54:28.344Z,23.38
2018-08-19T08:55:55.818Z,23.38
2018-08-19T08:57:23.222Z,23.37
2018-08-19T08:58:51.415Z,23.36
2018-08-19T09:00:18.025Z,23.38
2018-08-19T09:01:46.392Z,23.47
2018-08-19T09:03:13.076Z,23.59
2018-08-19T09:04:40.433Z,23.70
2018-08-19T09:06:08.061Z,23.82
2018-08-19T09:07:35.670Z,23.92
2018-08-19T09:09:03.154Z,23.93
2018-08-19T09:10:31.697Z,23.90
2018-08-19T09:11:58.343Z,23.82
2018-08-19T09:13:25.912Z,23.75
2018-08-19T09:14:54.347Z,23.73
2018-08-19T09:16:20.893Z,23.66
2018-08-19T09:17:48.418Z,23.62
2018-08-19T09:19:16.004Z,23.62
2018-08-19T09:20:44.300Z,23.56
2018-08-19T09:22:10.952Z,23.52
2018-08-19T09:23:38.498Z,23.46
2018-08-19T09:25:05.435Z,23.49
2018-08-19T09:26:34.072Z,23.56
2018-08-19T09:28:00.232Z,23.63
2018-08-19T09:29:27.272Z,23.67
2018-08-19T09:30:54.943Z,23.72
2018-08-19T09:32:22.077Z,23.66
2018-08-19T09:33:49.836Z,23.65
2018-08-19T09:35:17.459Z,23.60
2018-08-19T09:36:44.914Z,23.66
2018-08-19T09:38:13.407Z,23.81
2018-08-19T09:39:40.025Z,23.96
2018-08-19T09:41:06.905Z,24.14
2018-08-19T09:42:34.544Z,24.33
2018-08-19T09:44:02.217Z,24.50
2018-08-19T09:45:30.634Z,24.65
2018-08-19T09:46:57.118Z,24.74
2018-08-19T09:48:25.659Z,24.78
2018-08-19T09:49:52.099Z,24.86
2018-08-19T09:51:18.513Z,24.91
2018-08-19T09:52:46.105Z,24.95
2018-08-19T09:54:12.655Z,24.95
2018-08-19T09:55:41.227Z,24.92
2018-08-19T09:57:07.802Z,24.97
2018-08-19T09:58:35.352Z,24.97
2018-08-19T10:00:03.953Z,25.02
2018-08-19T10:01:30.694Z,25.09
2018-08-19T10:02:57.206Z,25.07
2018-08-19T10:04:25.816Z,25.04
2018-08-19T10:05:51.785Z,24.99
2018-08-19T10:07:18.801Z,24.97
2018-08-19T10:08:46.364Z,24.93
2018-08-19T10:10:14.031Z,24.94
2018-08-19T10:13:08.837Z,25.03
2018-08-19T10:14:36.455Z,25.04
2018-08-19T10:16:03.449Z,25.10
2018-08-19T10:17:31.252Z,25.19
2018-08-19T10:18:57.760Z,25.24
2018-08-19T10:20:25.315Z,25.27
2018-08-19T10:21:51.406Z,25.32
2018-08-19T10:23:19.108Z,25.39
2018-08-19T10:24:45.514Z,25.40
2018-08-19T10:26:13.157Z,25.41
2018-08-19T10:27:41.815Z,25.37
2018-08-19T10:29:08.468Z,25.32
2018-08-19T10:30:37.140Z,25.42
2018-08-19T10:32:03.320Z,25.54
2018-08-19T10:33:31.927Z,25.65
2018-08-19T10:34:58.582Z,25.65
2018-08-19T10:36:26.021Z,25.62
2018-08-19T10:37:54.550Z,25.61
2018-08-19T10:39:21.234Z,25.59
2018-08-19T10:40:48.807Z,25.60
2018-08-19T10:42:15.408Z,25.64
2018-08-19T10:43:43.033Z,25.66
2018-08-19T10:45:10.633Z,25.73
2018-08-19T10:46:38.523Z,25.84
2018-08-19T10:48:07.073Z,25.95
2018-08-19T10:49:33.647Z,25.94
2018-08-19T10:51:01.302Z,25.82
2018-08-19T10:52:28.902Z,25.77
2018-08-19T10:53:56.378Z,25.66
2018-08-19T10:55:22.420Z,25.57
2018-08-19T10:56:49.805Z,25.57
2018-08-19T10:58:16.493Z,25.52
2018-08-19T10:59:44.126Z,25.43
2018-08-19T11:01:11.604Z,25.39
2018-08-19T11:02:40.265Z,25.29
2018-08-19T11:04:06.725Z,25.22
2018-08-19T11:05:34.265Z,25.16
2018-08-19T11:07:01.875Z,25.08
2018-08-19T11:08:30.533Z,25.02
2018-08-19T11:09:56.009Z,25.00
2018-08-19T11:11:23.402Z,24.93
2018-08-19T11:12:51.058Z,24.92
2018-08-19T11:14:19.649Z,24.86
2018-08-19T11:15:45.693Z,24.83
2018-08-19T11:17:13.267Z,24.84
2018-08-19T11:18:41.030Z,24.85
2018-08-19T11:20:07.647Z,24.86
2018-08-19T11:21:35.385Z,24.87
2018-08-19T11:23:03.818Z,24.86
2018-08-19T11:24:31.400Z,24.86
2018-08-19T11:25:58.931Z,24.85
2018-08-19T11:27:25.411Z,24.86
2018-08-19T11:28:52.890Z,24.89
2018-08-19T11:30:21.331Z,24.92
2018-08-19T11:31:47.989Z,24.93
2018-08-19T11:33:14.232Z,24.97
2018-08-19T11:34:41.948Z,24.92
2018-08-19T11:36:10.566Z,24.87
2018-08-19T11:37:37.210Z,24.82
2018-08-19T11:39:04.773Z,24.82
2018-08-19T11:40:32.385Z,24.86
2018-08-19T11:42:01.068Z,24.91
2018-08-19T11:43:28.502Z,25.10
2018-08-19T11:44:55.111Z,25.33
2018-08-19T11:46:22.489Z,25.54
2018-08-19T11:47:51.121Z,25.76
2018-08-19T11:49:17.696Z,25.93
2018-08-19T11:50:45.092Z,26.03
2018-08-19T11:52:06.432Z,26.18
2018-08-19T11:53:40.128Z,26.25
2018-08-19T11:55:07.246Z,26.45
2018-08-19T11:56:33.955Z,26.61
2018-08-19T11:58:01.547Z,26.79
2018-08-19T11:59:28.563Z,26.97
2018-08-19T12:00:56.023Z,27.03
2018-08-19T12:02:23.327Z,27.05
2018-08-19T12:03:50.879Z,27.04
2018-08-19T12:05:19.599Z,27.06
2018-08-19T12:06:46.314Z,27.05
2018-08-19T12:08:13.869Z,27.12
2018-08-19T12:09:42.453Z,27.26
2018-08-19T12:11:10.019Z,27.40
2018-08-19T12:12:36.660Z,27.48
2018-08-19T12:14:05.287Z,27.55
2018-08-19T12:15:32.910Z,27.70
2018-08-19T12:16:59.500Z,27.73
2018-08-19T12:18:27.314Z,27.87
2018-08-19T12:19:53.939Z,27.99
2018-08-19T12:21:21.354Z,27.99
2018-08-19T12:22:48.853Z,28.18
2018-08-19T12:24:16.647Z,28.37
2018-08-19T12:25:43.404Z,28.48
2018-08-19T12:27:12.069Z,28.43
2018-08-19T12:28:38.859Z,28.23
2018-08-19T12:30:06.204Z,28.03
2018-08-19T12:31:32.875Z,28.15
2018-08-19T12:33:00.621Z,28.30
2018-08-19T12:34:28.213Z,28.36
2018-08-19T12:35:55.847Z,28.32
2018-08-19T12:37:23.463Z,28.28
2018-08-19T12:38:50.931Z,28.52
2018-08-19T12:40:18.539Z,28.74
2018-08-19T12:41:46.082Z,28.84
2018-08-19T12:43:13.829Z,28.84
2018-08-19T12:44:41.377Z,28.92
2018-08-19T12:46:09.049Z,28.98
2018-08-19T12:47:35.607Z,29.11
2018-08-19T12:49:03.389Z,29.15
2018-08-19T12:50:31.049Z,29.15
2018-08-19T12:51:58.627Z,29.17
2018-08-19T12:53:27.375Z,29.18
2018-08-19T12:54:53.706Z,29.19
2018-08-19T12:56:21.313Z,29.22
2018-08-19T12:57:49.052Z,28.98
2018-08-19T12:59:17.662Z,28.93
2018-08-19T13:00:45.306Z,28.92
2018-08-19T13:02:12.228Z,28.73
2018-08-19T13:03:39.895Z,28.80
2018-08-19T13:05:06.665Z,28.95
2018-08-19T13:06:34.201Z,28.80
2018-08-19T13:08:01.654Z,28.82
2018-08-19T13:09:28.816Z,28.83
2018-08-19T13:10:56.333Z,28.82
2018-08-19T13:12:23.662Z,28.94
2018-08-19T13:13:50.657Z,28.98
2018-08-19T13:15:17.701Z,28.86
2018-08-19T13:16:45.599Z,28.90
2018-08-19T13:18:13.196Z,28.93
2018-08-19T13:19:40.220Z,28.95
2018-08-19T13:21:07.968Z,28.94
2018-08-19T13:22:34.792Z,28.94
2018-08-19T13:24:02.340Z,28.84
2018-08-19T13:25:30.878Z,28.67
2018-08-19T13:26:57.443Z,28.74
2018-08-19T13:28:26.099Z,28.75
2018-08-19T13:29:52.499Z,28.60
2018-08-19T13:31:20.023Z,28.51
2018-08-19T13:32:48.709Z,28.54
2018-08-19T13:34:15.493Z,28.54
2018-08-19T13:35:43.178Z,28.59
2018-08-19T13:37:10.962Z,28.35
2018-08-19T13:38:38.799Z,28.18
2018-08-19T13:40:05.389Z,28.21
2018-08-19T13:41:32.035Z,28.17
2018-08-19T13:43:00.509Z,28.15
2018-08-19T13:44:28.232Z,28.15
2018-08-19T13:45:54.613Z,28.13
2018-08-19T13:47:21.964Z,28.09
2018-08-19T13:48:49.101Z,28.13
2018-08-19T13:50:16.731Z,28.00
2018-08-19T13:51:44.357Z,28.00
2018-08-19T13:53:12.132Z,28.00
2018-08-19T13:54:40.737Z,27.94
2018-08-19T13:56:08.435Z,27.92
2018-08-19T13:57:35.199Z,27.94
2018-08-19T13:59:02.734Z,27.92
2018-08-19T14:00:29.421Z,27.93
2018-08-19T14:01:56.183Z,27.84
2018-08-19T14:03:23.399Z,27.81
2018-08-19T14:04:50.933Z,27.74
2018-08-19T14:06:18.572Z,27.72
2018-08-19T14:07:45.490Z,27.69
2018-08-19T14:09:13.046Z,27.60
2018-08-19T14:10:40.682Z,27.51
2018-08-19T14:12:07.491Z,27.48
2018-08-19T14:13:34.024Z,27.43
2018-08-19T14:15:01.643Z,27.44
2018-08-19T14:16:28.679Z,27.43
2018-08-19T14:17:56.161Z,27.38
2018-08-19T14:19:24.935Z,27.36
2018-08-19T14:20:51.605Z,27.37
2018-08-19T14:22:18.268Z,27.37
2018-08-19T14:23:45.924Z,27.34
2018-08-19T14:25:12.704Z,27.30
2018-08-19T14:26:41.308Z,27.20
2018-08-19T14:28:08.910Z,27.14
2018-08-19T14:29:36.455Z,27.09
2018-08-19T14:31:02.899Z,27.06
2018-08-19T14:32:30.674Z,26.99
2018-08-19T14:33:58.133Z,26.99
2018-08-19T14:35:25.483Z,27.03
2018-08-19T14:36:54.197Z,27.04
2018-08-19T14:38:20.531Z,27.08
2018-08-19T14:39:47.484Z,27.02
2018-08-19T14:41:14.529Z,26.95
2018-08-19T14:42:42.251Z,26.94
2018-08-19T14:44:10.021Z,26.92
2018-08-19T14:45:36.773Z,26.91
2018-08-19T14:47:03.062Z,26.91
2018-08-19T14:48:30.694Z,26.90
2018-08-19T14:49:59.390Z,26.89
2018-08-19T14:51:26.499Z,26.90
2018-08-19T14:52:53.761Z,26.92
2018-08-19T14:54:21.057Z,26.87
2018-08-19T14:55:47.707Z,26.86
2018-08-19T14:57:15.458Z,26.82
2018-08-19T14:58:43.143Z,26.83
2018-08-19T15:00:09.728Z,26.82
2018-08-19T15:01:36.326Z,26.84
2018-08-19T15:03:03.937Z,26.85
2018-08-19T15:04:30.504Z,26.73
2018-08-19T15:05:59.192Z,26.73
2018-08-19T15:07:26.754Z,26.68
2018-08-19T15:08:53.068Z,26.59
2018-08-19T15:10:20.996Z,26.60
2018-08-19T15:11:47.676Z,26.62
2018-08-19T15:13:16.298Z,26.69
2018-08-19T15:14:42.156Z,26.73
2018-08-19T15:16:09.987Z,26.75
2018-08-19T15:17:37.514Z,26.72
2018-08-19T15:19:04.225Z,26.69
2018-08-19T15:20:30.980Z,26.69
2018-08-19T15:21:57.645Z,26.64
2018-08-19T15:23:26.238Z,26.59
2018-08-19T15:24:53.925Z,26.52
2018-08-19T15:26:21.338Z,26.45
2018-08-19T15:27:48.008Z,26.45
2018-08-19T15:29:15.441Z,26.44
2018-08-19T15:30:42.461Z,26.47
2018-08-19T15:32:09.304Z,26.51
2018-08-19T15:33:36.935Z,26.55
2018-08-19T15:35:03.428Z,26.57
2018-08-19T15:36:31.119Z,26.58
2018-08-19T15:37:59.741Z,26.60
2018-08-19T15:39:27.270Z,26.63
2018-08-19T15:40:52.969Z,26.65
2018-08-19T15:42:21.237Z,26.69
2018-08-19T15:43:48.994Z,26.72
2018-08-19T15:45:15.719Z,26.70
2018-08-19T15:46:43.367Z,26.72
2018-08-19T15:48:12.154Z,26.73
2018-08-19T15:49:38.858Z,26.73
2018-08-19T15:51:06.449Z,26.76
2018-08-19T15:52:33.181Z,26.78
2018-08-19T15:54:01.061Z,26.79
2018-08-19T15:55:27.080Z,26.80
2018-08-19T15:56:55.754Z,26.81
2018-08-19T15:58:22.420Z,26.81
2018-08-19T15:59:49.927Z,26.80
2018-08-19T16:01:17.467Z,26.80
2018-08-19T16:02:46.098Z,26.81
2018-08-19T16:04:12.631Z,26.80
2018-08-19T16:05:41.469Z,26.76
2018-08-19T16:07:09.192Z,26.73
2018-08-19T16:08:35.853Z,26.72
2018-08-19T16:10:03.578Z,26.71
2018-08-19T16:11:31.133Z,26.69
2018-08-19T16:12:57.029Z,26.64
2018-08-19T16:14:25.585Z,26.64
2018-08-19T16:15:51.854Z,26.62
2018-08-19T16:17:20.446Z,26.62
2018-08-19T16:18:48.145Z,26.58
2018-08-19T16:20:14.715Z,26.55
2018-08-19T16:21:42.347Z,26.53
2018-08-19T16:23:10.069Z,26.54
2018-08-19T16:24:37.533Z,26.55
2018-08-19T16:26:05.173Z,26.56
2018-08-19T16:27:33.771Z,26.57
2018-08-19T16:29:00.117Z,26.58
2018-08-19T16:30:27.806Z,26.55
2018-08-19T16:31:55.388Z,26.53
2018-08-19T16:33:22.879Z,26.53
2018-08-19T16:34:51.457Z,26.54
2018-08-19T16:36:18.541Z,26.54
2018-08-19T16:37:46.091Z,26.49
2018-08-19T16:39:13.663Z,26.44
2018-08-19T16:40:40.204Z,26.38
2018-08-19T16:42:08.008Z,26.35
2018-08-19T16:43:35.613Z,26.29
2018-08-19T16:45:04.318Z,26.23
2018-08-19T16:46:31.982Z,26.18
2018-08-19T16:47:58.640Z,26.14
2018-08-19T16:49:26.204Z,26.11
2018-08-19T16:50:53.805Z,26.09
2018-08-19T16:52:21.445Z,26.04
2018-08-19T16:53:50.023Z,25.97
2018-08-19T16:55:17.666Z,25.87
2018-08-19T16:56:44.271Z,25.76
2018-08-19T16:58:12.917Z,25.66
2018-08-19T16:59:38.907Z,25.60
2018-08-19T17:01:06.605Z,25.56
2018-08-19T17:02:34.119Z,25.51
2018-08-19T17:04:01.328Z,25.48
2018-08-19T17:05:29.987Z,25.43
2018-08-19T17:06:57.529Z,25.37
2018-08-19T17:08:23.977Z,25.31
2018-08-19T17:09:52.773Z,25.25
2018-08-19T17:11:19.398Z,25.19
2018-08-19T17:12:47.924Z,25.15
2018-08-19T17:14:14.553Z,25.12
2018-08-19T17:15:41.807Z,25.11
2018-08-19T17:17:08.922Z,25.09
2018-08-19T17:18:37.572Z,25.08
2018-08-19T17:20:05.248Z,25.05
2018-08-19T17:21:31.832Z,25.05
2018-08-19T17:23:00.313Z,25.06
2018-08-19T17:24:27.947Z,25.08
2018-08-19T17:25:54.435Z,25.09
2018-08-19T17:27:21.799Z,25.11
2018-08-19T17:28:49.483Z,25.13
2018-08-19T17:30:17.058Z,25.14
2018-08-19T17:31:45.765Z,25.15
2018-08-19T17:33:12.419Z,25.15
2018-08-19T17:34:41.023Z,25.14
2018-08-19T17:36:08.628Z,25.15
2018-08-19T17:37:36.248Z,25.15
2018-08-19T17:39:03.891Z,25.13
2018-08-19T17:40:30.486Z,25.12
2018-08-19T17:41:58.559Z,25.10
2018-08-19T17:43:25.101Z,25.08
2018-08-19T17:44:53.644Z,25.07
2018-08-19T17:46:19.970Z,25.05
2018-08-19T17:47:47.794Z,25.03
2018-08-19T17:49:15.457Z,25.00
2018-08-19T17:50:49.099Z,24.96
2018-08-19T17:52:10.654Z,24.91
2018-08-19T17:53:37.951Z,24.85
2018-08-19T17:55:06.604Z,24.76
2018-08-19T17:56:33.270Z,24.70
2018-08-19T17:58:00.715Z,24.62
2018-08-19T17:59:29.435Z,24.57
2018-08-19T18:00:55.503Z,24.49
2018-08-19T18:02:23.905Z,24.43
2018-08-19T18:03:50.390Z,24.36
2018-08-19T18:05:18.597Z,24.28
2018-08-19T18:06:44.388Z,24.22
2018-08-19T18:08:11.277Z,24.16
2018-08-19T18:09:38.694Z,24.07
2018-08-19T18:11:06.118Z,23.97
2018-08-19T18:12:33.656Z,23.88
2018-08-19T18:14:01.201Z,23.82
2018-08-19T18:15:27.969Z,23.76
2018-08-19T18:16:56.539Z,23.68
2018-08-19T18:18:22.944Z,23.62
2018-08-19T18:19:51.188Z,23.55
2018-08-19T18:21:18.840Z,23.50
2018-08-19T18:22:45.050Z,23.46
2018-08-19T18:24:13.694Z,23.38
2018-08-19T18:25:41.274Z,23.32
2018-08-19T18:27:07.759Z,23.26
2018-08-19T18:28:35.493Z,23.20
2018-08-19T18:30:03.251Z,23.15
2018-08-19T18:31:29.902Z,23.10
2018-08-19T18:32:57.756Z,23.05
2018-08-19T18:34:25.058Z,23.01
2018-08-19T18:35:51.487Z,22.96
2018-08-19T18:37:19.637Z,22.93
2018-08-19T18:38:46.266Z,22.90
2018-08-19T18:40:13.787Z,22.87
2018-08-19T18:41:40.777Z,22.84
2018-08-19T18:43:08.340Z,22.82
2018-08-19T18:44:35.811Z,22.76
2018-08-19T18:46:03.202Z,22.69
2018-08-19T18:47:31.572Z,22.62
2018-08-19T18:48:58.504Z,22.58
2018-08-19T18:50:24.902Z,22.56
2018-08-19T18:51:52.452Z,22.57
2018-08-19T18:53:19.732Z,22.55
2018-08-19T18:54:47.248Z,22.54
2018-08-19T18:56:14.777Z,22.50
2018-08-19T18:57:42.259Z,22.43
2018-08-19T18:59:10.785Z,22.35
2018-08-19T19:00:38.372Z,22.29
2018-08-19T19:02:05.089Z,22.25
2018-08-19T19:03:32.628Z,22.18
2018-08-19T19:05:00.019Z,22.13
2018-08-19T19:06:26.815Z,22.07
2018-08-19T19:07:54.549Z,22.03
2018-08-19T19:09:20.635Z,22.02
2018-08-19T19:10:48.155Z,21.99
2018-08-19T19:12:15.652Z,21.98
2018-08-19T19:13:42.391Z,21.95
2018-08-19T19:15:10.104Z,21.94
2018-08-19T19:16:37.686Z,21.94
2018-08-19T19:18:05.258Z,21.90